sensor_id;sensor_type;location;lat;lon;timestamp;temperature;humidity
19970;DHT22;10146;47.754;9.566;2023-06-04T00:00:42;16.30;99.90
19970;DHT22;10146;47.754;9.566;2023-06-04T00:03:08;16.20;99.90
19970;DHT22;10146;47.754;9.566;2023-06-04T00:05:33;16.20;99.90
19970;DHT22;10146;47.754;9.566;2023-06-04T00:07:59;16.20;99.90
19970;DHT22;10146;47.754;9.566;2023-06-04T00:10:24;16.20;99.90
19970;DHT22;10146;47.754;9.566;2023-06-04T00:12:50;16.20;99.90
19970;DHT22;10146;47.754;9.566;2023-06-04T00:15:16;16.10;99.90
19970;DHT22;10146;47.754;9.566;2023-06-04T00:17:44;16.00;99.90
19970;DHT22;10146;47.754;9.566;2023-06-04T00:20:10;15.90;99.90
19970;DHT22;10146;47.754;9.566;2023-06-04T00:22:36;15.90;99.90
19970;DHT22;10146;47.754;9.566;2023-06-04T00:25:02;15.90;99.90
19970;DHT22;10146;47.754;9.566;2023-06-04T00:27:28;15.90;99.90
19970;DHT22;10146;47.754;9.566;2023-06-04T00:29:54;15.90;99.90
19970;DHT22;10146;47.754;9.566;2023-06-04T00:32:20;16.00;99.90
19970;DHT22;10146;47.754;9.566;2023-06-04T00:34:54;16.00;99.90
19970;DHT22;10146;47.754;9.566;2023-06-04T00:37:22;16.00;99.90
19970;DHT22;10146;47.754;9.566;2023-06-04T00:39:48;15.90;99.90
19970;DHT22;10146;47.754;9.566;2023-06-04T00:42:13;15.90;99.90
19970;DHT22;10146;47.754;9.566;2023-06-04T00:44:39;15.90;99.90
19970;DHT22;10146;47.754;9.566;2023-06-04T00:47:16;15.80;99.90
19970;DHT22;10146;47.754;9.566;2023-06-04T00:49:42;15.80;99.90
19970;DHT22;10146;47.754;9.566;2023-06-04T00:52:08;15.70;99.90
19970;DHT22;10146;47.754;9.566;2023-06-04T00:54:35;15.60;99.90
19970;DHT22;10146;47.754;9.566;2023-06-04T00:57:01;15.50;99.90
19970;DHT22;10146;47.754;9.566;2023-06-04T00:59:29;15.60;99.90
19970;DHT22;10146;47.754;9.566;2023-06-04T01:02:15;15.60;99.90
19970;DHT22;10146;47.754;9.566;2023-06-04T01:04:51;15.60;99.90
19970;DHT22;10146;47.754;9.566;2023-06-04T01:07:19;15.50;99.90
19970;DHT22;10146;47.754;9.566;2023-06-04T01:09:45;15.40;99.90
19970;DHT22;10146;47.754;9.566;2023-06-04T01:12:11;15.40;99.90
19970;DHT22;10146;47.754;9.566;2023-06-04T01:14:37;15.40;99.90
19970;DHT22;10146;47.754;9.566;2023-06-04T01:17:17;15.30;99.90
19970;DHT22;10146;47.754;9.566;2023-06-04T01:25:01;15.40;99.90
19970;DHT22;10146;47.754;9.566;2023-06-04T01:27:28;15.40;99.90
19970;DHT22;10146;47.754;9.566;2023-06-04T01:29:55;15.40;99.90
19970;DHT22;10146;47.754;9.566;2023-06-04T01:32:23;15.30;99.90
19970;DHT22;10146;47.754;9.566;2023-06-04T01:34:49;15.20;99.90
19970;DHT22;10146;47.754;9.566;2023-06-04T01:37:14;15.20;99.90
19970;DHT22;10146;47.754;9.566;2023-06-04T01:39:41;15.10;99.90
19970;DHT22;10146;47.754;9.566;2023-06-04T01:42:08;15.10;99.90
19970;DHT22;10146;47.754;9.566;2023-06-04T01:44:33;15.00;99.90
19970;DHT22;10146;47.754;9.566;2023-06-04T01:46:59;15.10;99.90
19970;DHT22;10146;47.754;9.566;2023-06-04T01:49:24;15.20;99.90
19970;DHT22;10146;47.754;9.566;2023-06-04T01:51:50;15.20;99.90
19970;DHT22;10146;47.754;9.566;2023-06-04T01:54:16;15.20;99.90
19970;DHT22;10146;47.754;9.566;2023-06-04T01:56:41;15.20;99.90
19970;DHT22;10146;47.754;9.566;2023-06-04T01:59:07;15.10;99.90
19970;DHT22;10146;47.754;9.566;2023-06-04T02:01:33;15.00;99.90
19970;DHT22;10146;47.754;9.566;2023-06-04T02:03:59;15.00;99.90
19970;DHT22;10146;47.754;9.566;2023-06-04T02:06:25;15.00;99.90
19970;DHT22;10146;47.754;9.566;2023-06-04T02:08:55;15.00;99.90
19970;DHT22;10146;47.754;9.566;2023-06-04T02:11:21;15.00;99.90
19970;DHT22;10146;47.754;9.566;2023-06-04T02:13:47;14.90;99.90
19970;DHT22;10146;47.754;9.566;2023-06-04T02:16:13;14.90;99.90
19970;DHT22;10146;47.754;9.566;2023-06-04T02:18:38;15.00;99.90
19970;DHT22;10146;47.754;9.566;2023-06-04T02:21:04;15.00;99.90
19970;DHT22;10146;47.754;9.566;2023-06-04T02:23:30;15.00;99.90
19970;DHT22;10146;47.754;9.566;2023-06-04T02:25:55;14.90;99.90
19970;DHT22;10146;47.754;9.566;2023-06-04T02:28:21;14.90;99.90
19970;DHT22;10146;47.754;9.566;2023-06-04T02:30:47;14.90;99.90
19970;DHT22;10146;47.754;9.566;2023-06-04T02:33:13;14.90;99.90
19970;DHT22;10146;47.754;9.566;2023-06-04T02:35:39;14.90;99.90
19970;DHT22;10146;47.754;9.566;2023-06-04T02:38:05;14.90;99.90
19970;DHT22;10146;47.754;9.566;2023-06-04T02:40:31;14.90;99.90
19970;DHT22;10146;47.754;9.566;2023-06-04T02:42:56;14.80;99.90
19970;DHT22;10146;47.754;9.566;2023-06-04T02:45:25;14.90;99.90
19970;DHT22;10146;47.754;9.566;2023-06-04T02:47:50;14.90;99.90
19970;DHT22;10146;47.754;9.566;2023-06-04T02:50:16;14.90;99.90
19970;DHT22;10146;47.754;9.566;2023-06-04T02:52:42;14.80;99.90
19970;DHT22;10146;47.754;9.566;2023-06-04T02:55:09;14.90;99.90
19970;DHT22;10146;47.754;9.566;2023-06-04T02:57:35;15.00;99.90
19970;DHT22;10146;47.754;9.566;2023-06-04T03:00:01;15.20;99.90
19970;DHT22;10146;47.754;9.566;2023-06-04T03:02:33;15.20;99.90
19970;DHT22;10146;47.754;9.566;2023-06-04T03:04:59;15.20;99.90
19970;DHT22;10146;47.754;9.566;2023-06-04T03:07:24;15.10;99.90
19970;DHT22;10146;47.754;9.566;2023-06-04T03:09:50;15.20;99.90
19970;DHT22;10146;47.754;9.566;2023-06-04T03:12:16;15.30;99.90
19970;DHT22;10146;47.754;9.566;2023-06-04T03:14:41;15.30;99.90
19970;DHT22;10146;47.754;9.566;2023-06-04T03:17:07;15.30;99.90
19970;DHT22;10146;47.754;9.566;2023-06-04T03:19:36;15.20;99.90
19970;DHT22;10146;47.754;9.566;2023-06-04T03:22:03;15.30;99.90
19970;DHT22;10146;47.754;9.566;2023-06-04T03:24:32;15.30;99.90
19970;DHT22;10146;47.754;9.566;2023-06-04T03:26:59;15.30;99.90
19970;DHT22;10146;47.754;9.566;2023-06-04T03:29:25;15.30;99.90
19970;DHT22;10146;47.754;9.566;2023-06-04T03:31:50;15.30;99.90
19970;DHT22;10146;47.754;9.566;2023-06-04T03:34:16;15.40;99.90
19970;DHT22;10146;47.754;9.566;2023-06-04T03:36:41;15.30;99.90
19970;DHT22;10146;47.754;9.566;2023-06-04T03:39:07;15.30;99.90
19970;DHT22;10146;47.754;9.566;2023-06-04T03:41:33;15.30;99.90
19970;DHT22;10146;47.754;9.566;2023-06-04T03:43:58;15.30;99.90
19970;DHT22;10146;47.754;9.566;2023-06-04T03:46:24;15.30;99.90
19970;DHT22;10146;47.754;9.566;2023-06-04T03:48:57;15.30;99.90
19970;DHT22;10146;47.754;9.566;2023-06-04T03:51:22;15.30;99.90
19970;DHT22;10146;47.754;9.566;2023-06-04T03:53:48;15.30;99.90
19970;DHT22;10146;47.754;9.566;2023-06-04T03:56:13;15.30;99.90
19970;DHT22;10146;47.754;9.566;2023-06-04T03:58:39;15.30;99.90
19970;DHT22;10146;47.754;9.566;2023-06-04T04:01:05;15.40;99.90
19970;DHT22;10146;47.754;9.566;2023-06-04T04:03:33;15.40;99.90
19970;DHT22;10146;47.754;9.566;2023-06-04T04:06:00;15.40;99.90
19970;DHT22;10146;47.754;9.566;2023-06-04T04:08:25;15.40;99.90
19970;DHT22;10146;47.754;9.566;2023-06-04T04:10:55;15.40;99.90
19970;DHT22;10146;47.754;9.566;2023-06-04T04:13:21;15.30;99.90
19970;DHT22;10146;47.754;9.566;2023-06-04T04:15:46;15.30;99.90
19970;DHT22;10146;47.754;9.566;2023-06-04T04:18:12;15.30;99.90
19970;DHT22;10146;47.754;9.566;2023-06-04T04:20:38;15.40;99.90
19970;DHT22;10146;47.754;9.566;2023-06-04T04:23:04;15.40;99.90
19970;DHT22;10146;47.754;9.566;2023-06-04T04:25:31;15.40;99.90
19970;DHT22;10146;47.754;9.566;2023-06-04T04:27:57;15.40;99.90
19970;DHT22;10146;47.754;9.566;2023-06-04T04:30:25;15.40;99.90
19970;DHT22;10146;47.754;9.566;2023-06-04T04:32:51;15.40;99.90
19970;DHT22;10146;47.754;9.566;2023-06-04T04:35:17;15.40;99.90
19970;DHT22;10146;47.754;9.566;2023-06-04T04:37:44;15.50;99.90
19970;DHT22;10146;47.754;9.566;2023-06-04T04:40:10;15.50;99.90
19970;DHT22;10146;47.754;9.566;2023-06-04T04:42:37;15.60;99.90
19970;DHT22;10146;47.754;9.566;2023-06-04T04:45:03;15.70;99.90
19970;DHT22;10146;47.754;9.566;2023-06-04T04:47:29;15.70;99.90
19970;DHT22;10146;47.754;9.566;2023-06-04T04:49:55;15.70;99.90
19970;DHT22;10146;47.754;9.566;2023-06-04T04:52:20;15.80;99.90
19970;DHT22;10146;47.754;9.566;2023-06-04T04:54:46;15.80;99.90
19970;DHT22;10146;47.754;9.566;2023-06-04T04:57:12;15.70;99.90
19970;DHT22;10146;47.754;9.566;2023-06-04T04:59:37;15.80;99.90
19970;DHT22;10146;47.754;9.566;2023-06-04T05:02:03;15.80;99.90
19970;DHT22;10146;47.754;9.566;2023-06-04T05:04:28;15.90;99.90
19970;DHT22;10146;47.754;9.566;2023-06-04T05:06:54;16.00;99.90
19970;DHT22;10146;47.754;9.566;2023-06-04T05:09:20;15.90;99.90
19970;DHT22;10146;47.754;9.566;2023-06-04T05:11:45;15.90;99.90
19970;DHT22;10146;47.754;9.566;2023-06-04T05:14:11;15.90;99.90
19970;DHT22;10146;47.754;9.566;2023-06-04T05:16:37;16.00;99.90
19970;DHT22;10146;47.754;9.566;2023-06-04T05:19:04;16.10;99.90
19970;DHT22;10146;47.754;9.566;2023-06-04T05:21:29;16.10;99.90
19970;DHT22;10146;47.754;9.566;2023-06-04T05:23:55;16.10;99.90
19970;DHT22;10146;47.754;9.566;2023-06-04T05:26:21;16.10;99.90
19970;DHT22;10146;47.754;9.566;2023-06-04T05:28:49;16.00;99.90
19970;DHT22;10146;47.754;9.566;2023-06-04T05:31:15;16.00;99.90
19970;DHT22;10146;47.754;9.566;2023-06-04T05:33:41;16.10;99.90
19970;DHT22;10146;47.754;9.566;2023-06-04T05:36:07;16.10;99.90
19970;DHT22;10146;47.754;9.566;2023-06-04T05:38:33;16.10;99.90
19970;DHT22;10146;47.754;9.566;2023-06-04T05:41:01;16.10;99.90
19970;DHT22;10146;47.754;9.566;2023-06-04T05:43:27;16.20;99.90
19970;DHT22;10146;47.754;9.566;2023-06-04T05:45:53;16.20;99.90
19970;DHT22;10146;47.754;9.566;2023-06-04T05:48:19;16.30;99.90
19970;DHT22;10146;47.754;9.566;2023-06-04T05:50:44;16.50;99.90
19970;DHT22;10146;47.754;9.566;2023-06-04T05:53:10;16.50;99.90
19970;DHT22;10146;47.754;9.566;2023-06-04T05:55:36;16.50;99.90
19970;DHT22;10146;47.754;9.566;2023-06-04T05:58:01;16.60;99.90
19970;DHT22;10146;47.754;9.566;2023-06-04T06:00:27;16.80;99.90
19970;DHT22;10146;47.754;9.566;2023-06-04T06:02:53;16.90;99.90
19970;DHT22;10146;47.754;9.566;2023-06-04T06:05:19;17.00;99.90
19970;DHT22;10146;47.754;9.566;2023-06-04T06:07:46;17.10;99.90
19970;DHT22;10146;47.754;9.566;2023-06-04T06:10:12;17.00;99.90
19970;DHT22;10146;47.754;9.566;2023-06-04T06:12:39;17.00;99.90
19970;DHT22;10146;47.754;9.566;2023-06-04T06:15:05;16.90;99.90
19970;DHT22;10146;47.754;9.566;2023-06-04T06:17:31;16.90;99.90
19970;DHT22;10146;47.754;9.566;2023-06-04T06:19:58;16.80;99.90
19970;DHT22;10146;47.754;9.566;2023-06-04T06:22:24;16.70;99.90
19970;DHT22;10146;47.754;9.566;2023-06-04T06:24:50;16.60;99.90
19970;DHT22;10146;47.754;9.566;2023-06-04T06:27:16;16.70;99.90
19970;DHT22;10146;47.754;9.566;2023-06-04T06:29:42;16.60;99.90
19970;DHT22;10146;47.754;9.566;2023-06-04T06:32:10;16.80;99.90
19970;DHT22;10146;47.754;9.566;2023-06-04T06:34:36;16.90;99.90
19970;DHT22;10146;47.754;9.566;2023-06-04T06:37:02;17.10;99.90
19970;DHT22;10146;47.754;9.566;2023-06-04T06:39:28;17.20;99.90
19970;DHT22;10146;47.754;9.566;2023-06-04T06:41:54;17.40;99.90
19970;DHT22;10146;47.754;9.566;2023-06-04T06:44:19;17.50;99.90
19970;DHT22;10146;47.754;9.566;2023-06-04T06:46:46;17.60;99.90
19970;DHT22;10146;47.754;9.566;2023-06-04T06:49:14;17.70;99.90
19970;DHT22;10146;47.754;9.566;2023-06-04T06:51:40;17.70;99.90
19970;DHT22;10146;47.754;9.566;2023-06-04T06:54:05;17.80;99.90
19970;DHT22;10146;47.754;9.566;2023-06-04T06:56:31;17.80;99.90
19970;DHT22;10146;47.754;9.566;2023-06-04T06:58:56;17.80;99.90
19970;DHT22;10146;47.754;9.566;2023-06-04T07:01:22;17.80;99.90
19970;DHT22;10146;47.754;9.566;2023-06-04T07:03:47;17.90;99.90
19970;DHT22;10146;47.754;9.566;2023-06-04T07:06:13;18.00;99.90
19970;DHT22;10146;47.754;9.566;2023-06-04T07:08:39;18.20;99.90
19970;DHT22;10146;47.754;9.566;2023-06-04T07:11:05;18.30;99.90
19970;DHT22;10146;47.754;9.566;2023-06-04T07:13:30;18.40;99.90
19970;DHT22;10146;47.754;9.566;2023-06-04T07:16:00;18.40;99.90
19970;DHT22;10146;47.754;9.566;2023-06-04T07:18:26;18.50;99.90
19970;DHT22;10146;47.754;9.566;2023-06-04T07:20:52;18.70;99.90
19970;DHT22;10146;47.754;9.566;2023-06-04T07:23:18;18.80;99.90
19970;DHT22;10146;47.754;9.566;2023-06-04T07:25:44;18.90;99.90
19970;DHT22;10146;47.754;9.566;2023-06-04T07:28:09;19.00;99.90
19970;DHT22;10146;47.754;9.566;2023-06-04T07:30:35;19.10;99.90
19970;DHT22;10146;47.754;9.566;2023-06-04T07:33:02;19.10;99.90
19970;DHT22;10146;47.754;9.566;2023-06-04T07:35:30;19.20;99.90
19970;DHT22;10146;47.754;9.566;2023-06-04T07:37:56;19.30;99.90
19970;DHT22;10146;47.754;9.566;2023-06-04T07:40:21;19.30;99.90
19970;DHT22;10146;47.754;9.566;2023-06-04T07:42:47;19.40;99.90
19970;DHT22;10146;47.754;9.566;2023-06-04T07:45:15;19.60;99.90
19970;DHT22;10146;47.754;9.566;2023-06-04T07:47:42;19.60;99.90
19970;DHT22;10146;47.754;9.566;2023-06-04T07:50:08;19.70;99.90
19970;DHT22;10146;47.754;9.566;2023-06-04T07:52:34;19.90;99.90
19970;DHT22;10146;47.754;9.566;2023-06-04T07:55:00;19.90;99.90
19970;DHT22;10146;47.754;9.566;2023-06-04T07:57:26;20.00;99.90
19970;DHT22;10146;47.754;9.566;2023-06-04T07:59:51;20.00;99.90
19970;DHT22;10146;47.754;9.566;2023-06-04T08:02:18;20.20;99.90
19970;DHT22;10146;47.754;9.566;2023-06-04T08:04:44;20.30;99.90
19970;DHT22;10146;47.754;9.566;2023-06-04T08:07:10;20.40;99.90
19970;DHT22;10146;47.754;9.566;2023-06-04T08:09:36;20.60;99.90
19970;DHT22;10146;47.754;9.566;2023-06-04T08:12:02;20.70;99.90
19970;DHT22;10146;47.754;9.566;2023-06-04T08:14:27;20.90;99.90
19970;DHT22;10146;47.754;9.566;2023-06-04T08:16:53;20.80;99.90
19970;DHT22;10146;47.754;9.566;2023-06-04T08:19:19;20.90;99.90
19970;DHT22;10146;47.754;9.566;2023-06-04T08:21:45;21.10;99.90
19970;DHT22;10146;47.754;9.566;2023-06-04T08:24:12;21.20;99.90
19970;DHT22;10146;47.754;9.566;2023-06-04T08:26:38;21.30;99.90
19970;DHT22;10146;47.754;9.566;2023-06-04T08:29:04;21.50;99.90
19970;DHT22;10146;47.754;9.566;2023-06-04T08:31:30;21.60;99.90
19970;DHT22;10146;47.754;9.566;2023-06-04T08:33:55;21.70;99.90
19970;DHT22;10146;47.754;9.566;2023-06-04T08:36:21;21.90;99.90
19970;DHT22;10146;47.754;9.566;2023-06-04T08:38:47;22.00;98.80
19970;DHT22;10146;47.754;9.566;2023-06-04T08:44:16;22.10;94.90
19970;DHT22;10146;47.754;9.566;2023-06-04T08:46:44;22.30;93.70
19970;DHT22;10146;47.754;9.566;2023-06-04T08:49:12;22.40;91.90
19970;DHT22;10146;47.754;9.566;2023-06-04T08:51:37;22.40;89.10
19970;DHT22;10146;47.754;9.566;2023-06-04T08:54:04;22.40;87.70
19970;DHT22;10146;47.754;9.566;2023-06-04T08:56:31;22.50;90.40
19970;DHT22;10146;47.754;9.566;2023-06-04T08:59:01;22.60;90.00
19970;DHT22;10146;47.754;9.566;2023-06-04T09:01:28;22.80;86.30
19970;DHT22;10146;47.754;9.566;2023-06-04T09:03:54;23.00;87.50
19970;DHT22;10146;47.754;9.566;2023-06-04T09:06:22;23.10;79.80
19970;DHT22;10146;47.754;9.566;2023-06-04T09:08:48;23.20;77.20
19970;DHT22;10146;47.754;9.566;2023-06-04T09:11:16;23.30;74.70
19970;DHT22;10146;47.754;9.566;2023-06-04T09:13:43;23.40;74.10
19970;DHT22;10146;47.754;9.566;2023-06-04T09:16:12;23.50;71.70
19970;DHT22;10146;47.754;9.566;2023-06-04T09:18:38;23.60;72.80
19970;DHT22;10146;47.754;9.566;2023-06-04T09:21:08;23.70;69.00
19970;DHT22;10146;47.754;9.566;2023-06-04T09:26:09;23.80;68.30
19970;DHT22;10146;47.754;9.566;2023-06-04T09:28:35;23.80;67.10
19970;DHT22;10146;47.754;9.566;2023-06-04T09:31:01;23.80;66.90
19970;DHT22;10146;47.754;9.566;2023-06-04T09:33:45;23.90;67.10
19970;DHT22;10146;47.754;9.566;2023-06-04T09:36:11;24.10;66.30
19970;DHT22;10146;47.754;9.566;2023-06-04T09:38:37;24.00;63.80
19970;DHT22;10146;47.754;9.566;2023-06-04T09:41:02;24.00;64.70
19970;DHT22;10146;47.754;9.566;2023-06-04T09:43:32;23.80;63.70
19970;DHT22;10146;47.754;9.566;2023-06-04T09:46:14;23.80;63.10
19970;DHT22;10146;47.754;9.566;2023-06-04T09:48:41;24.00;63.80
19970;DHT22;10146;47.754;9.566;2023-06-04T09:51:11;24.20;64.20
19970;DHT22;10146;47.754;9.566;2023-06-04T09:53:38;24.40;64.30
19970;DHT22;10146;47.754;9.566;2023-06-04T09:56:05;24.40;62.90
19970;DHT22;10146;47.754;9.566;2023-06-04T09:58:37;24.50;61.80
19970;DHT22;10146;47.754;9.566;2023-06-04T10:01:04;24.70;64.40
19970;DHT22;10146;47.754;9.566;2023-06-04T10:03:32;24.90;64.00
19970;DHT22;10146;47.754;9.566;2023-06-04T10:06:00;25.10;62.40
19970;DHT22;10146;47.754;9.566;2023-06-04T10:08:27;25.10;59.80
19970;DHT22;10146;47.754;9.566;2023-06-04T10:11:01;25.20;61.30
19970;DHT22;10146;47.754;9.566;2023-06-04T10:13:35;25.20;63.00
19970;DHT22;10146;47.754;9.566;2023-06-04T10:16:03;25.30;62.20
19970;DHT22;10146;47.754;9.566;2023-06-04T10:18:30;25.40;65.70
19970;DHT22;10146;47.754;9.566;2023-06-04T10:20:56;25.40;60.90
19970;DHT22;10146;47.754;9.566;2023-06-04T10:23:23;25.40;61.70
19970;DHT22;10146;47.754;9.566;2023-06-04T10:25:50;25.50;62.00
19970;DHT22;10146;47.754;9.566;2023-06-04T10:28:19;25.50;59.60
19970;DHT22;10146;47.754;9.566;2023-06-04T10:30:48;25.50;62.30
19970;DHT22;10146;47.754;9.566;2023-06-04T10:33:19;25.60;62.00
19970;DHT22;10146;47.754;9.566;2023-06-04T10:35:45;25.60;60.70
19970;DHT22;10146;47.754;9.566;2023-06-04T10:38:12;25.90;62.40
19970;DHT22;10146;47.754;9.566;2023-06-04T10:40:42;25.90;60.10
19970;DHT22;10146;47.754;9.566;2023-06-04T10:43:10;26.00;61.00
19970;DHT22;10146;47.754;9.566;2023-06-04T10:45:36;25.90;60.10
19970;DHT22;10146;47.754;9.566;2023-06-04T10:48:06;25.70;59.20
19970;DHT22;10146;47.754;9.566;2023-06-04T10:50:33;25.60;59.90
19970;DHT22;10146;47.754;9.566;2023-06-04T10:53:00;25.70;59.20
19970;DHT22;10146;47.754;9.566;2023-06-04T10:55:32;25.80;61.00
19970;DHT22;10146;47.754;9.566;2023-06-04T10:58:00;26.10;62.90
19970;DHT22;10146;47.754;9.566;2023-06-04T11:00:44;26.20;62.10
19970;DHT22;10146;47.754;9.566;2023-06-04T11:03:15;26.20;60.40
19970;DHT22;10146;47.754;9.566;2023-06-04T11:05:50;26.20;60.60
19970;DHT22;10146;47.754;9.566;2023-06-04T11:08:26;26.10;61.20
19970;DHT22;10146;47.754;9.566;2023-06-04T11:10:55;26.20;59.90
19970;DHT22;10146;47.754;9.566;2023-06-04T11:13:24;26.30;58.40
19970;DHT22;10146;47.754;9.566;2023-06-04T11:15:53;26.10;59.50
19970;DHT22;10146;47.754;9.566;2023-06-04T11:18:22;26.10;58.50
19970;DHT22;10146;47.754;9.566;2023-06-04T11:20:49;26.10;57.80
19970;DHT22;10146;47.754;9.566;2023-06-04T11:23:16;25.70;58.50
19970;DHT22;10146;47.754;9.566;2023-06-04T11:25:43;25.60;59.20
19970;DHT22;10146;47.754;9.566;2023-06-04T11:28:15;25.40;58.90
19970;DHT22;10146;47.754;9.566;2023-06-04T11:30:42;25.40;61.70
19970;DHT22;10146;47.754;9.566;2023-06-04T11:33:08;25.50;59.00
19970;DHT22;10146;47.754;9.566;2023-06-04T11:35:43;25.70;60.30
19970;DHT22;10146;47.754;9.566;2023-06-04T11:38:09;25.90;57.70
19970;DHT22;10146;47.754;9.566;2023-06-04T11:40:35;26.00;57.60
19970;DHT22;10146;47.754;9.566;2023-06-04T11:43:01;26.30;58.90
19970;DHT22;10146;47.754;9.566;2023-06-04T11:45:27;26.70;57.60
19970;DHT22;10146;47.754;9.566;2023-06-04T11:47:56;26.80;57.10
19970;DHT22;10146;47.754;9.566;2023-06-04T11:50:23;26.70;56.70
19970;DHT22;10146;47.754;9.566;2023-06-04T11:52:52;26.50;57.10
19970;DHT22;10146;47.754;9.566;2023-06-04T11:55:19;26.20;56.60
19970;DHT22;10146;47.754;9.566;2023-06-04T11:57:49;25.80;56.50
19970;DHT22;10146;47.754;9.566;2023-06-04T12:00:16;25.90;57.30
19970;DHT22;10146;47.754;9.566;2023-06-04T12:02:53;26.00;55.10
19970;DHT22;10146;47.754;9.566;2023-06-04T12:05:39;26.10;55.80
19970;DHT22;10146;47.754;9.566;2023-06-04T12:08:05;26.10;55.90
19970;DHT22;10146;47.754;9.566;2023-06-04T12:10:40;26.30;56.20
19970;DHT22;10146;47.754;9.566;2023-06-04T12:13:07;26.50;54.10
19970;DHT22;10146;47.754;9.566;2023-06-04T12:15:32;26.40;55.10
19970;DHT22;10146;47.754;9.566;2023-06-04T12:17:58;26.20;54.10
19970;DHT22;10146;47.754;9.566;2023-06-04T12:20:38;26.30;54.40
19970;DHT22;10146;47.754;9.566;2023-06-04T12:23:05;26.50;53.80
19970;DHT22;10146;47.754;9.566;2023-06-04T12:25:32;26.50;54.30
19970;DHT22;10146;47.754;9.566;2023-06-04T12:27:58;26.40;54.60
19970;DHT22;10146;47.754;9.566;2023-06-04T12:30:37;26.20;55.20
19970;DHT22;10146;47.754;9.566;2023-06-04T12:33:03;26.10;55.90
19970;DHT22;10146;47.754;9.566;2023-06-04T12:35:29;26.10;56.30
19970;DHT22;10146;47.754;9.566;2023-06-04T12:37:54;26.30;54.80
19970;DHT22;10146;47.754;9.566;2023-06-04T12:40:20;26.60;54.50
19970;DHT22;10146;47.754;9.566;2023-06-04T12:42:45;26.90;52.30
19970;DHT22;10146;47.754;9.566;2023-06-04T12:45:12;26.80;53.20
19970;DHT22;10146;47.754;9.566;2023-06-04T12:47:39;26.90;52.20
19970;DHT22;10146;47.754;9.566;2023-06-04T12:50:06;26.90;52.00
19970;DHT22;10146;47.754;9.566;2023-06-04T12:52:31;27.10;52.30
19970;DHT22;10146;47.754;9.566;2023-06-04T12:54:57;27.10;51.40
19970;DHT22;10146;47.754;9.566;2023-06-04T12:57:23;27.10;53.40
19970;DHT22;10146;47.754;9.566;2023-06-04T12:59:49;27.20;52.40
19970;DHT22;10146;47.754;9.566;2023-06-04T13:02:14;27.40;51.90
19970;DHT22;10146;47.754;9.566;2023-06-04T13:04:40;27.40;51.30
19970;DHT22;10146;47.754;9.566;2023-06-04T13:07:08;27.70;51.00
19970;DHT22;10146;47.754;9.566;2023-06-04T13:09:33;28.10;51.40
19970;DHT22;10146;47.754;9.566;2023-06-04T13:12:00;28.50;50.10
19970;DHT22;10146;47.754;9.566;2023-06-04T13:14:25;28.80;49.30
19970;DHT22;10146;47.754;9.566;2023-06-04T13:16:51;29.10;48.40
19970;DHT22;10146;47.754;9.566;2023-06-04T13:19:17;29.30;49.50
19970;DHT22;10146;47.754;9.566;2023-06-04T13:21:44;29.20;48.90
19970;DHT22;10146;47.754;9.566;2023-06-04T13:24:10;29.50;49.50
19970;DHT22;10146;47.754;9.566;2023-06-04T13:26:36;29.60;48.30
19970;DHT22;10146;47.754;9.566;2023-06-04T13:29:01;30.00;47.10
19970;DHT22;10146;47.754;9.566;2023-06-04T13:31:27;30.40;46.10
19970;DHT22;10146;47.754;9.566;2023-06-04T13:33:52;30.60;46.20
19970;DHT22;10146;47.754;9.566;2023-06-04T13:36:18;30.40;45.50
19970;DHT22;10146;47.754;9.566;2023-06-04T13:38:44;30.10;45.30
19970;DHT22;10146;47.754;9.566;2023-06-04T13:41:09;29.90;46.20
19970;DHT22;10146;47.754;9.566;2023-06-04T13:43:35;30.20;45.90
19970;DHT22;10146;47.754;9.566;2023-06-04T13:46:01;30.30;46.50
19970;DHT22;10146;47.754;9.566;2023-06-04T13:48:27;29.30;47.50
19970;DHT22;10146;47.754;9.566;2023-06-04T13:50:53;28.50;48.30
19970;DHT22;10146;47.754;9.566;2023-06-04T13:53:19;28.30;49.00
19970;DHT22;10146;47.754;9.566;2023-06-04T13:55:45;28.60;49.20
19970;DHT22;10146;47.754;9.566;2023-06-04T13:58:11;28.70;47.70
19970;DHT22;10146;47.754;9.566;2023-06-04T14:00:37;28.80;47.70
19970;DHT22;10146;47.754;9.566;2023-06-04T14:03:03;28.60;47.40
19970;DHT22;10146;47.754;9.566;2023-06-04T14:05:28;29.20;46.40
19970;DHT22;10146;47.754;9.566;2023-06-04T14:07:54;29.70;46.00
19970;DHT22;10146;47.754;9.566;2023-06-04T14:10:20;30.20;44.70
19970;DHT22;10146;47.754;9.566;2023-06-04T14:12:46;30.00;45.80
19970;DHT22;10146;47.754;9.566;2023-06-04T14:15:11;30.30;45.70
19970;DHT22;10146;47.754;9.566;2023-06-04T14:17:39;30.40;44.40
19970;DHT22;10146;47.754;9.566;2023-06-04T14:20:06;30.10;45.00
19970;DHT22;10146;47.754;9.566;2023-06-04T14:22:39;29.80;45.70
19970;DHT22;10146;47.754;9.566;2023-06-04T14:25:06;29.90;45.60
19970;DHT22;10146;47.754;9.566;2023-06-04T14:27:33;30.10;46.10
19970;DHT22;10146;47.754;9.566;2023-06-04T14:29:59;30.00;46.20
19970;DHT22;10146;47.754;9.566;2023-06-04T14:32:24;30.10;46.10
19970;DHT22;10146;47.754;9.566;2023-06-04T14:34:51;30.00;46.10
19970;DHT22;10146;47.754;9.566;2023-06-04T14:37:16;30.10;46.20
19970;DHT22;10146;47.754;9.566;2023-06-04T14:39:42;30.00;46.60
19970;DHT22;10146;47.754;9.566;2023-06-04T14:42:08;30.30;45.40
19970;DHT22;10146;47.754;9.566;2023-06-04T14:44:33;30.60;45.30
19970;DHT22;10146;47.754;9.566;2023-06-04T14:46:59;30.80;44.70
19970;DHT22;10146;47.754;9.566;2023-06-04T14:49:25;31.40;43.00
19970;DHT22;10146;47.754;9.566;2023-06-04T14:51:50;32.00;41.60
19970;DHT22;10146;47.754;9.566;2023-06-04T14:54:16;32.20;41.40
19970;DHT22;10146;47.754;9.566;2023-06-04T14:56:42;32.10;42.20
19970;DHT22;10146;47.754;9.566;2023-06-04T14:59:09;32.60;41.60
19970;DHT22;10146;47.754;9.566;2023-06-04T15:01:38;32.70;40.50
19970;DHT22;10146;47.754;9.566;2023-06-04T15:04:06;32.60;42.40
19970;DHT22;10146;47.754;9.566;2023-06-04T15:06:32;32.70;41.70
19970;DHT22;10146;47.754;9.566;2023-06-04T15:08:57;33.10;40.90
19970;DHT22;10146;47.754;9.566;2023-06-04T15:11:23;34.00;39.30
19970;DHT22;10146;47.754;9.566;2023-06-04T15:13:49;34.50;38.20
19970;DHT22;10146;47.754;9.566;2023-06-04T15:16:14;34.90;37.40
19970;DHT22;10146;47.754;9.566;2023-06-04T15:18:40;34.90;37.00
19970;DHT22;10146;47.754;9.566;2023-06-04T15:21:06;35.20;36.40
19970;DHT22;10146;47.754;9.566;2023-06-04T15:23:31;35.50;36.00
19970;DHT22;10146;47.754;9.566;2023-06-04T15:25:57;36.00;36.20
19970;DHT22;10146;47.754;9.566;2023-06-04T15:28:22;36.20;35.40
19970;DHT22;10146;47.754;9.566;2023-06-04T15:30:48;36.30;35.10
19970;DHT22;10146;47.754;9.566;2023-06-04T15:33:14;35.80;35.70
19970;DHT22;10146;47.754;9.566;2023-06-04T15:35:41;35.00;36.40
19970;DHT22;10146;47.754;9.566;2023-06-04T15:38:07;35.30;36.20